Time;durP1;ratioP1;P1;durP2;ratioP2;P2;SDS_P1;SDS_P2;PMS_P1;PMS_P2;Temp;Humidity;BMP_temperature;BMP_pressure;BME280_temperature;BME280_humidity;BME280_pressure;Samples;Min_cycle;Max_cycle;Signal;HPM_P1;HPM_P2
2022/05/20 00:00:16;;;;;;;1.17;1.05;;;;;;;9.60;77.12;62985.69;5067025;28;20217;-78
2022/05/20 00:02:43;;;;;;;1.95;1.10;;;;;;;9.57;78.30;62982.59;5078171;28;20201;-78
2022/05/20 00:05:10;;;;;;;0.90;0.90;;;;;;;9.64;77.95;62992.38;5086525;28;20232;-78
2022/05/20 00:07:39;;;;;;;0.90;0.90;;;;;;;9.62;78.48;62990.31;5086667;28;20238;-77
2022/05/20 00:10:09;;;;;;;4.00;1.20;;;;;;;9.56;78.88;62981.03;5086265;28;20232;-78
2022/05/20 00:12:36;;;;;;;2.22;1.35;;;;;;;9.47;80.28;62974.28;5070129;28;20534;-77
2022/05/20 00:15:05;;;;;;;2.35;1.10;;;;;;;9.55;80.31;62982.53;5084954;28;20624;-78
2022/05/20 00:17:32;;;;;;;0.65;0.65;;;;;;;9.52;81.01;62979.97;5086440;28;20250;-77
2022/05/20 00:19:59;;;;;;;1.00;0.82;;;;;;;9.51;79.15;62975.88;5083977;28;20228;-78
2022/05/20 00:22:26;;;;;;;0.98;0.98;;;;;;;9.44;80.79;62971.69;5086151;28;20203;-79
2022/05/20 00:27:39;;;;;;;1.65;1.10;;;;;;;9.46;80.97;62973.25;5086020;28;20567;-77
2022/05/20 00:30:06;;;;;;;1.23;1.10;;;;;;;9.60;80.09;62988.22;5074167;28;20221;-78
2022/05/20 00:32:33;;;;;;;2.00;1.10;;;;;;;9.58;78.55;62983.13;5078637;28;20303;-78
2022/05/20 00:35:00;;;;;;;1.00;1.00;;;;;;;9.50;78.76;62974.84;5083254;28;20297;-76
2022/05/20 00:37:27;;;;;;;1.10;1.10;;;;;;;9.55;79.01;62980.00;5085321;28;20405;-76
2022/05/20 00:39:54;;;;;;;1.52;1.40;;;;;;;9.56;79.08;62986.63;5086012;28;20217;-77
2022/05/20 00:42:21;;;;;;;1.30;1.20;;;;;;;9.56;79.27;62981.56;5086705;28;20213;-78
2022/05/20 00:44:49;;;;;;;1.27;1.20;;;;;;;9.51;79.89;62981.47;5081174;28;20274;-77
2022/05/20 00:47:16;;;;;;;1.40;1.40;;;;;;;9.57;80.44;62985.13;5085941;28;20370;-78
2022/05/20 00:49:47;;;;;;;2.58;2.20;;;;;;;9.63;80.33;62988.78;5086162;28;20220;-78
2022/05/20 00:52:17;;;;;;;2.38;1.23;;;;;;;9.55;80.60;62985.59;5086589;28;20254;-77
2022/05/20 00:54:48;;;;;;;1.17;1.17;;;;;;;9.53;81.49;62983.53;5082002;28;20208;-78
2022/05/20 00:57:20;;;;;;;2.08;1.33;;;;;;;9.51;82.11;62975.88;5086680;28;20428;-78
2022/05/20 00:59:52;;;;;;;2.20;2.10;;;;;;;9.49;82.73;62978.88;5085672;28;20234;-78
2022/05/20 01:02:22;;;;;;;3.90;1.98;;;;;;;9.44;83.13;62969.13;5084025;28;20217;-77
2022/05/20 01:04:49;;;;;;;1.52;1.48;;;;;;;9.39;82.77;62968.56;5084140;28;20280;-77
2022/05/20 01:07:19;;;;;;;1.67;1.58;;;;;;;9.40;83.21;62970.09;5084771;28;20204;-77
2022/05/20 01:09:46;;;;;;;1.25;1.15;;;;;;;9.34;80.91;62961.88;5086689;28;20235;-77
2022/05/20 01:12:13;;;;;;;0.90;0.90;;;;;;;9.38;81.66;62964.97;5083394;28;20235;-77
2022/05/20 01:14:40;;;;;;;0.90;0.90;;;;;;;9.31;82.89;62956.22;5085103;28;20212;-78
2022/05/20 01:17:10;;;;;;;1.77;1.15;;;;;;;9.22;82.76;62946.94;5086178;28;20210;-77
2022/05/20 01:19:39;;;;;;;0.98;0.98;;;;;;;9.18;81.58;62942.28;5073513;28;20259;-78
2022/05/20 01:22:09;;;;;;;1.08;1.08;;;;;;;9.24;81.39;62953.56;5064997;28;20263;-77
2022/05/20 01:24:37;;;;;;;1.20;1.20;;;;;;;9.16;82.00;62943.25;5065446;28;20230;-78
2022/05/20 01:27:05;;;;;;;1.20;1.20;;;;;;;9.07;82.77;62931.44;5079990;28;20231;-77
2022/05/20 01:29:32;;;;;;;1.27;1.05;;;;;;;9.01;85.24;62927.75;5067910;28;20217;-77
2022/05/20 01:31:59;;;;;;;1.67;1.58;;;;;;;8.95;86.46;62921.03;5066564;28;20233;-77
2022/05/20 01:34:26;;;;;;;1.20;1.13;;;;;;;8.82;86.44;62905.06;5083356;28;20284;-77
2022/05/20 01:36:53;;;;;;;1.05;1.05;;;;;;;8.81;86.13;62904.03;5084319;28;20197;-78
2022/05/20 01:39:20;;;;;;;1.02;1.02;;;;;;;8.87;84.94;62912.78;5084509;28;20251;-78
2022/05/20 01:41:54;;;;;;;1.05;1.05;;;;;;;8.80;83.85;62906.03;5084830;28;20196;-77
2022/05/20 01:44:26;;;;;;;1.92;1.10;;;;;;;8.75;84.75;62900.38;5083888;28;20240;-78
2022/05/20 01:46:58;;;;;;;1.25;1.25;;;;;;;8.75;84.71;62900.38;5071900;28;20205;-78
2022/05/20 01:49:34;;;;;;;1.05;1.05;;;;;;;8.74;85.21;62899.84;5064837;28;20224;-78
2022/05/20 01:52:09;;;;;;;2.38;1.27;;;;;;;8.73;84.29;62901.34;5073704;28;20524;-77
2022/05/20 01:54:46;;;;;;;1.20;1.20;;;;;;;8.76;83.79;62903.94;5083490;28;20258;-78
2022/05/20 01:57:22;;;;;;;0.88;0.88;;;;;;;8.76;83.26;62896.84;5084759;28;20184;-78
2022/05/20 01:59:54;;;;;;;0.90;0.90;;;;;;;8.66;83.11;62888.53;5086029;28;20222;-77
2022/05/20 02:02:26;;;;;;;3.22;1.30;;;;;;;8.69;83.39;62891.63;5080786;28;20225;-79
2022/05/20 02:04:59;;;;;;;1.27;1.17;;;;;;;8.68;84.01;62890.59;5086393;28;20220;-78
2022/05/20 02:07:34;;;;;;;1.40;1.30;;;;;;;8.58;84.36;62882.78;5086227;28;20371;-78
2022/05/20 02:10:08;;;;;;;1.25;1.00;;;;;;;8.72;84.34;62897.78;5079329;28;20216;-79
2022/05/20 02:12:45;;;;;;;1.27;1.17;;;;;;;8.61;83.91;62883.88;5083022;28;20274;-78
2022/05/20 02:15:17;;;;;;;1.45;1.20;;;;;;;8.64;83.43;62889.00;5084493;28;20219;-77
2022/05/20 02:17:48;;;;;;;3.70;1.00;;;;;;;8.65;84.84;62887.50;5084794;28;20398;-77
2022/05/20 02:20:21;;;;;;;1.00;1.00;;;;;;;8.66;82.91;62891.06;5075638;28;20236;-78
2022/05/20 02:22:53;;;;;;;1.17;1.05;;;;;;;8.65;82.71;62887.50;5085055;28;20200;-77
2022/05/20 02:25:24;;;;;;;0.95;0.95;;;;;;;8.77;82.20;62902.94;5082806;28;20212;-79
2022/05/20 02:28:07;;;;;;;1.35;1.13;;;;;;;8.80;82.42;62906.03;5080577;28;20197;-77
2022/05/20 02:30:34;;;;;;;1.20;1.10;;;;;;;8.77;82.39;62902.94;5074974;28;20259;-77
2022/05/20 02:33:06;;;;;;;1.02;1.02;;;;;;;8.74;84.33;62894.78;5063200;28;20229;-77
2022/05/20 02:35:34;;;;;;;1.40;1.20;;;;;;;8.65;85.76;62885.47;5067865;28;20391;-77
2022/05/20 02:38:05;;;;;;;1.13;1.05;;;;;;;8.57;86.30;62879.22;5077428;28;20204;-78
2022/05/20 02:40:32;;;;;;;3.13;1.35;;;;;;;8.52;87.03;62874.06;5068680;28;20209;-76
2022/05/20 02:43:00;;;;;;;1.10;1.10;;;;;;;8.48;86.84;62873.00;5083239;28;20431;-77
2022/05/20 02:45:27;;;;;;;0.80;0.80;;;;;;;8.44;87.75;62863.78;5078963;28;20386;-78
2022/05/20 02:47:54;;;;;;;0.93;0.93;;;;;;;8.43;88.47;62862.22;5083419;28;20207;-76
2022/05/20 02:50:21;;;;;;;1.10;1.00;;;;;;;8.41;87.28;62868.28;5083489;28;20217;-78
2022/05/20 02:52:48;;;;;;;3.20;1.60;;;;;;;8.39;86.93;62863.69;5082452;28;20237;-77
2022/05/20 02:55:15;;;;;;;0.95;0.95;;;;;;;8.38;85.74;62859.59;5065880;28;20385;-78
2022/05/20 02:57:44;;;;;;;1.38;1.27;;;;;;;8.36;85.81;62862.59;5078743;28;20208;-77
2022/05/20 03:05:43;;;;;;;1.23;1.20;;;;;;;8.38;83.71;62862.13;5071892;28;20223;-77
2022/05/20 03:08:11;;;;;;;0.68;0.63;;;;;;;8.41;85.20;62868.28;5082630;28;20192;-78
2022/05/20 03:10:38;;;;;;;0.80;0.80;;;;;;;8.41;87.66;62868.28;5082463;28;20517;-77
2022/05/20 03:13:07;;;;;;;0.80;0.80;;;;;;;8.36;88.78;62860.59;5078405;28;20224;-77
2022/05/20 03:15:37;;;;;;;1.58;1.48;;;;;;;8.38;88.28;62857.59;5082765;28;20561;-77
2022/05/20 03:18:05;;;;;;;1.38;1.10;;;;;;;8.37;86.89;62861.63;5082714;28;20465;-77
2022/05/20 03:20:32;;;;;;;1.10;1.10;;;;;;;8.39;87.37;62860.66;5080042;28;20220;-76
2022/05/20 03:22:58;;;;;;;0.73;0.73;;;;;;;8.38;88.23;62865.19;5062126;28;20197;-77
2022/05/20 03:25:25;;;;;;;1.08;1.08;;;;;;;8.45;88.65;62869.91;5084198;28;20220;-77
2022/05/20 03:27:52;;;;;;;9.88;7.50;;;;;;;8.52;88.29;62879.16;5082603;28;20200;-77
2022/05/20 03:30:20;;;;;;;2.15;1.77;;;;;;;8.55;89.15;62874.63;5073634;28;20221;-76
2022/05/20 03:32:48;;;;;;;1.90;1.70;;;;;;;8.62;87.92;62887.47;5070289;28;20563;-77
2022/05/20 03:35:16;;;;;;;1.30;1.20;;;;;;;8.71;87.53;62896.25;5082709;28;20224;-77
2022/05/20 03:37:42;;;;;;;2.38;1.40;;;;;;;8.80;87.59;62903.50;5082539;28;20521;-76
2022/05/20 03:40:10;;;;;;;2.17;2.08;;;;;;;8.91;87.14;62914.38;5074983;28;20228;-77
2022/05/20 03:42:37;;;;;;;2.03;1.92;;;;;;;8.99;87.26;62925.19;5081917;28;20212;-77
2022/05/20 03:45:05;;;;;;;3.08;2.10;;;;;;;9.05;87.79;62926.81;5082592;28;20232;-77
2022/05/20 03:47:32;;;;;;;7.88;2.40;;;;;;;8.97;88.90;62918.53;5080350;28;20239;-76
2022/05/20 03:50:01;;;;;;;1.80;1.70;;;;;;;8.85;90.53;62910.72;5067746;28;20434;-77
2022/05/20 03:52:28;;;;;;;2.30;2.08;;;;;;;8.84;91.66;62910.19;5082180;28;20567;-77
2022/05/20 03:54:55;;;;;;;1.92;1.80;;;;;;;8.78;92.68;62901.47;5082351;28;20228;-75
2022/05/20 03:57:22;;;;;;;4.97;2.70;;;;;;;8.84;94.74;62907.66;5077142;28;20263;-78
2022/05/20 03:59:48;;;;;;;7.63;2.50;;;;;;;8.98;96.67;62924.13;5080548;28;20227;-76
2022/05/20 04:02:14;;;;;;;5.40;2.95;;;;;;;8.95;97.53;62921.03;5063987;28;20513;-78
2022/05/20 04:04:44;;;;;;;5.25;3.28;;;;;;;8.90;99.21;62918.41;5064121;28;20237;-77
2022/05/20 04:07:14;;;;;;;3.08;2.78;;;;;;;9.01;99.82;62930.28;5069736;28;20193;-77
2022/05/20 04:09:42;;;;;;;3.58;3.38;;;;;;;9.11;100.00;62937.59;5080060;28;20258;-77
2022/05/20 04:12:24;;;;;;;3.72;3.42;;;;;;;9.26;100.00;62958.69;5085319;28;20242;-77
2022/05/20 04:14:51;;;;;;;4.88;3.55;;;;;;;9.16;100.00;62945.78;5083889;28;20251;-76
2022/05/20 04:17:18;;;;;;;6.00;4.35;;;;;;;9.35;100.00;62960.34;5067851;28;20197;-76
2022/05/20 04:19:45;;;;;;;10.63;3.90;;;;;;;9.46;100.00;62975.78;5087768;28;20228;-77
2022/05/20 04:22:15;;;;;;;4.70;3.30;;;;;;;9.62;100.00;62987.25;5084612;28;20371;-77
2022/05/20 04:24:42;;;;;;;4.70;3.20;;;;;;;9.78;100.00;63006.84;5080087;28;20285;-76
2022/05/20 04:27:09;;;;;;;3.97;3.40;;;;;;;9.75;100.00;63008.81;5076694;28;20272;-76
2022/05/20 04:29:36;;;;;;;3.85;3.55;;;;;;;9.64;100.00;62994.91;5085221;28;20537;-76
2022/05/20 04:32:03;;;;;;;4.00;3.47;;;;;;;9.67;100.00;62992.94;5086789;28;20469;-77
2022/05/20 04:34:31;;;;;;;3.53;3.30;;;;;;;9.77;99.11;63005.28;5073588;28;20259;-76
2022/05/20 04:36:58;;;;;;;4.93;3.53;;;;;;;9.78;98.33;63009.41;5070766;28;20193;-77
2022/05/20 04:39:26;;;;;;;3.63;3.33;;;;;;;9.77;98.80;63000.22;5085700;28;20230;-77
2022/05/20 04:47:24;;;;;;;3.28;2.85;;;;;;;10.18;99.09;63045.69;5085320;28;20184;-77
2022/05/20 04:49:51;;;;;;;5.55;3.63;;;;;;;10.24;97.92;63051.91;5085888;28;20287;-77
2022/05/20 04:52:18;;;;;;;7.38;4.35;;;;;;;10.13;98.15;63042.56;5076943;28;20205;-76
2022/05/20 04:54:52;;;;;;;8.65;4.20;;;;;;;10.12;97.42;63042.03;5083106;28;20261;-77
2022/05/20 04:57:29;;;;;;;4.07;3.78;;;;;;;10.15;96.42;63045.16;5084704;28;20502;-76
2022/05/20 05:00:00;;;;;;;6.32;3.47;;;;;;;10.24;96.39;63056.47;5084884;28;20281;-77
2022/05/20 05:02:27;;;;;;;5.28;3.83;;;;;;;10.36;94.37;63066.34;5081114;28;20234;-77
2022/05/20 05:04:55;;;;;;;7.43;3.60;;;;;;;10.45;96.16;63073.66;5084198;28;20213;-76
2022/05/20 05:07:22;;;;;;;9.80;3.80;;;;;;;10.61;96.13;63089.69;5083611;28;20371;-75
2022/05/20 05:09:51;;;;;;;6.32;3.42;;;;;;;10.74;94.16;63103.13;5081558;28;20342;-75
2022/05/20 05:12:19;;;;;;;6.60;4.20;;;;;;;10.74;93.49;63107.72;5064972;28;20251;-76
2022/05/20 05:14:47;;;;;;;6.13;3.78;;;;;;;10.79;94.48;63113.41;5084936;28;20575;-75
2022/05/20 05:17:17;;;;;;;8.18;4.00;;;;;;;10.91;95.38;63120.22;5084730;28;20216;-76
2022/05/20 05:19:45;;;;;;;6.20;4.35;;;;;;;11.14;92.47;63142.00;5079249;28;20521;-77
2022/05/20 05:22:13;;;;;;;8.43;4.57;;;;;;;11.22;94.11;63149.75;5085476;28;20201;-77
2022/05/20 05:24:40;;;;;;;6.03;4.72;;;;;;;11.30;93.22;63163.16;5084883;28;20232;-76
2022/05/20 05:27:08;;;;;;;5.90;3.75;;;;;;;11.38;91.81;63169.41;5082256;28;20505;-75
2022/05/20 05:29:38;;;;;;;6.78;4.47;;;;;;;11.47;90.30;63178.75;5082461;28;20231;-76
2022/05/20 05:32:06;;;;;;;8.80;4.00;;;;;;;11.64;90.33;63198.41;5084616;28;20193;-76
2022/05/20 05:34:34;;;;;;;9.82;4.03;;;;;;;11.71;90.55;63202.56;5083641;28;20240;-76
2022/05/20 05:37:01;;;;;;;4.65;4.07;;;;;;;11.85;89.47;63217.59;5082456;28;20189;-76
2022/05/20 05:39:27;;;;;;;4.13;3.13;;;;;;;11.77;86.25;63209.31;5064076;28;20221;-76
2022/05/20 05:41:55;;;;;;;6.75;3.63;;;;;;;11.91;86.03;63221.25;5068890;28;20193;-76
2022/05/20 05:44:23;;;;;;;10.18;3.92;;;;;;;12.14;83.45;63252.75;5083033;28;20232;-78
2022/05/20 05:46:50;;;;;;;3.33;3.13;;;;;;;12.34;81.63;63270.41;5079031;28;20197;-77
2022/05/20 05:49:16;;;;;;;5.25;3.30;;;;;;;12.44;81.05;63278.22;5084206;28;20216;-78
2022/05/20 05:51:44;;;;;;;4.57;3.58;;;;;;;12.42;77.79;63278.72;5084385;28;20212;-76
2022/05/20 05:54:11;;;;;;;3.55;2.97;;;;;;;12.39;78.44;63276.13;5089817;28;20246;-77
2022/05/20 05:56:38;;;;;;;8.27;3.30;;;;;;;12.37;77.79;63276.59;5081123;28;20474;-77
2022/05/20 05:59:05;;;;;;;6.30;3.42;;;;;;;12.58;78.48;63295.81;5080929;28;20224;-77
2022/05/20 06:01:33;;;;;;;4.93;3.20;;;;;;;12.56;76.70;63293.72;5083008;28;20201;-76
2022/05/20 06:04:01;;;;;;;4.90;3.53;;;;;;;12.77;76.54;63312.44;5082605;28;20216;-75
2022/05/20 06:06:28;;;;;;;3.47;3.20;;;;;;;12.95;74.61;63333.66;5083640;28;20493;-75
2022/05/20 06:08:55;;;;;;;7.55;3.55;;;;;;;13.13;73.40;63352.34;5082971;28;20498;-74
2022/05/20 06:11:22;;;;;;;6.80;3.67;;;;;;;13.12;72.55;63348.75;5081210;28;20208;-75
2022/05/20 06:13:49;;;;;;;8.10;3.85;;;;;;;13.27;72.57;63368.94;5080853;28;20315;-75
2022/05/20 06:16:21;;;;;;;4.78;4.28;;;;;;;13.20;72.95;63361.66;5082999;28;20211;-75
2022/05/20 06:18:51;;;;;;;7.20;3.03;;;;;;;13.38;72.74;63377.78;5083194;28;20193;-76
2022/05/20 06:21:18;;;;;;;6.70;2.97;;;;;;;13.61;71.24;63402.16;5082957;28;20238;-75
2022/05/20 06:23:45;;;;;;;7.47;3.17;;;;;;;13.52;69.52;63390.25;5070583;28;20209;-76
2022/05/20 06:26:11;;;;;;;11.80;3.30;;;;;;;13.60;69.66;63398.56;5080238;28;20218;-76
2022/05/20 06:28:38;;;;;;;3.50;3.30;;;;;;;13.70;70.24;63408.94;5083207;28;20215;-75
2022/05/20 06:31:05;;;;;;;3.38;2.95;;;;;;;13.93;71.12;63431.78;5084251;28;20262;-74
2022/05/20 06:33:32;;;;;;;12.50;3.78;;;;;;;13.88;71.85;63430.19;5081261;28;20229;-74
2022/05/20 06:41:29;;;;;;;6.00;3.00;;;;;;;13.77;69.52;63420.81;5081027;28;20246;-75
2022/05/20 06:43:57;;;;;;;5.85;3.05;;;;;;;13.87;69.07;63428.63;5083068;28;20521;-75
2022/05/20 06:46:24;;;;;;;8.90;3.20;;;;;;;14.15;71.65;63457.19;5083452;28;20205;-75
2022/05/20 06:48:54;;;;;;;7.25;3.78;;;;;;;14.38;66.47;63478.50;5082555;28;20197;-74
2022/05/20 06:51:25;;;;;;;7.07;3.15;;;;;;;14.40;66.64;63481.13;5067085;28;20213;-75
2022/05/20 06:53:53;;;;;;;3.92;3.15;;;;;;;14.43;66.16;63488.81;5081305;28;20219;-76
2022/05/20 06:56:22;;;;;;;3.50;3.20;;;;;;;14.60;63.62;63501.88;5086874;28;20223;-75
2022/05/20 06:58:49;;;;;;;9.45;3.42;;;;;;;14.71;64.17;63515.88;5077925;28;20204;-74
2022/05/20 07:01:16;;;;;;;12.68;3.85;;;;;;;14.84;62.16;63526.81;5070969;28;20216;-76
2022/05/20 07:03:44;;;;;;;7.90;4.43;;;;;;;14.58;62.73;63504.41;5083234;28;20196;-76
2022/05/20 07:06:12;;;;;;;6.75;3.75;;;;;;;14.45;64.83;63496.56;5073454;28;20239;-74
2022/05/20 07:08:43;;;;;;;8.13;3.50;;;;;;;14.75;64.63;63520.00;5080952;28;20211;-76
2022/05/20 07:11:10;;;;;;;4.25;3.50;;;;;;;14.95;62.97;63545.94;5072645;28;20248;-75
2022/05/20 07:13:36;;;;;;;5.47;3.45;;;;;;;15.18;61.47;63561.63;5081069;28;20232;-75
2022/05/20 07:16:04;;;;;;;6.28;3.05;;;;;;;15.42;60.02;63588.63;5079949;28;20225;-75
2022/05/20 07:18:32;;;;;;;6.82;3.00;;;;;;;15.54;60.06;63606.22;5082239;28;20196;-74
2022/05/20 07:20:58;;;;;;;5.10;3.63;;;;;;;15.87;57.86;63637.97;5062662;28;20220;-75
2022/05/20 07:23:28;;;;;;;5.03;3.10;;;;;;;15.83;58.07;63626.63;5070337;28;20208;-74
2022/05/20 07:25:56;;;;;;;3.97;3.35;;;;;;;16.04;56.80;63650.50;5076736;28;20221;-75
2022/05/20 07:28:23;;;;;;;5.13;4.43;;;;;;;16.13;56.76;63662.94;5066221;28;20214;-76
2022/05/20 07:30:51;;;;;;;7.93;3.80;;;;;;;15.88;53.29;63636.44;5082874;28;20224;-75
2022/05/20 07:33:18;;;;;;;6.30;4.00;;;;;;;15.93;56.46;63639.59;5082483;28;20196;-77
2022/05/20 07:35:45;;;;;;;9.65;3.60;;;;;;;15.98;54.38;63647.34;5085381;28;20410;-75
2022/05/20 07:38:11;;;;;;;9.23;3.47;;;;;;;16.04;53.76;63650.50;5082352;28;20210;-75
2022/05/20 07:40:38;;;;;;;6.22;2.92;;;;;;;16.14;54.95;63666.03;5079570;28;20453;-76
2022/05/20 07:43:07;;;;;;;7.00;3.60;;;;;;;16.11;53.47;63663.47;5073268;28;20272;-75
2022/05/20 07:45:34;;;;;;;12.63;3.50;;;;;;;16.27;53.27;63679.06;5080481;28;20282;-76
2022/05/20 07:48:01;;;;;;;6.30;3.15;;;;;;;16.33;52.89;63685.81;5083147;28;20544;-76
2022/05/20 07:50:29;;;;;;;4.28;3.28;;;;;;;16.47;52.51;63694.72;5081551;28;20223;-76
2022/05/20 07:55:46;;;;;;;7.70;3.33;;;;;;;16.46;49.43;63701.38;5076781;28;20220;-75
2022/05/20 07:58:18;;;;;;;4.88;2.75;;;;;;;16.57;49.27;63705.66;5083510;28;20555;-75
2022/05/20 08:00:46;;;;;;;6.38;3.08;;;;;;;16.58;50.84;63709.28;5087746;28;20228;-75
2022/05/20 08:04:52;;;;;;;2.88;2.67;;;;;;;16.54;50.22;63705.09;5092116;28;20200;-74
2022/05/20 08:06:00;;;;;;;7.63;3.05;;;;;;;16.67;49.36;63718.63;5083203;28;20243;-76
2022/05/20 08:08:27;;;;;;;3.67;2.70;;;;;;;16.70;49.09;63723.81;5079044;28;20208;-75
2022/05/20 08:10:54;;;;;;;8.77;3.30;;;;;;;16.73;49.71;63724.34;5085014;28;20219;-78
2022/05/20 08:13:23;;;;;;;5.90;3.42;;;;;;;16.85;49.39;63734.25;5072005;28;20204;-76
2022/05/20 08:15:50;;;;;;;8.98;3.33;;;;;;;17.02;49.47;63752.47;5083733;28;20556;-75
2022/05/20 08:18:17;;;;;;;5.22;3.05;;;;;;;17.03;49.19;63758.66;5084560;28;20211;-75
2022/05/20 08:20:45;;;;;;;5.55;2.70;;;;;;;17.30;47.70;63788.81;5072113;28;20513;-75
2022/05/20 08:23:12;;;;;;;5.57;3.08;;;;;;;17.37;45.32;63793.00;5075755;28;20359;-76
2022/05/20 08:25:39;;;;;;;13.43;3.22;;;;;;;17.38;47.83;63794.06;5080685;28;20224;-76
2022/05/20 08:28:06;;;;;;;3.40;2.85;;;;;;;17.44;45.73;63800.31;5083704;28;20204;-75
2022/05/20 08:30:35;;;;;;;3.45;2.88;;;;;;;17.55;45.86;63811.78;5082773;28;20223;-74
2022/05/20 08:33:01;;;;;;;5.22;2.58;;;;;;;17.56;45.43;63812.81;5072929;28;20207;-76
2022/05/20 08:35:28;;;;;;;3.95;3.55;;;;;;;17.60;46.34;63819.56;5085374;28;20236;-75
2022/05/20 08:37:55;;;;;;;5.50;3.30;;;;;;;17.81;43.29;63836.78;5075798;28;20243;-75
2022/05/20 08:40:26;;;;;;;2.92;2.72;;;;;;;18.03;43.73;63859.19;5076972;28;20533;-74
2022/05/20 08:42:55;;;;;;;7.30;3.70;;;;;;;18.16;44.17;63878.41;5082586;28;20208;-74
2022/05/20 08:45:25;;;;;;;7.50;3.60;;;;;;;18.33;43.32;63893.53;5075454;28;20258;-75
2022/05/20 08:47:54;;;;;;;10.02;3.70;;;;;;;18.26;42.94;63883.69;5076733;28;20208;-75
2022/05/20 08:50:25;;;;;;;11.82;3.05;;;;;;;18.46;42.95;63906.59;5065601;28;20264;-76
2022/05/20 08:52:56;;;;;;;4.85;3.28;;;;;;;18.41;41.71;63898.81;5080180;28;20204;-75
2022/05/20 08:55:23;;;;;;;5.13;2.63;;;;;;;18.43;44.00;63903.97;5068472;28;20278;-75
2022/05/20 08:57:54;;;;;;;4.43;3.20;;;;;;;18.42;41.09;63905.53;5066229;28;20197;-77
2022/05/20 09:00:22;;;;;;;3.88;3.08;;;;;;;18.50;41.32;63913.34;5080021;28;20401;-75
2022/05/20 09:02:49;;;;;;;5.03;2.75;;;;;;;18.47;41.11;63912.25;5081930;28;20384;-75
2022/05/20 09:05:22;;;;;;;2.42;2.22;;;;;;;18.59;41.79;63914.97;5085916;28;20431;-76
2022/05/20 09:07:58;;;;;;;3.15;2.92;;;;;;;18.84;42.14;63943.09;5086317;28;20180;-75
2022/05/20 09:10:31;;;;;;;3.40;3.03;;;;;;;19.00;40.21;63959.78;5085033;28;20226;-75
2022/05/20 09:13:07;;;;;;;7.95;2.80;;;;;;;18.94;39.10;63953.50;5076920;28;20524;-75
2022/05/20 09:15:46;;;;;;;2.55;2.33;;;;;;;18.96;38.47;63958.72;5065375;28;20236;-75
2022/05/20 09:18:20;;;;;;;4.97;2.10;;;;;;;19.17;37.71;63977.50;5084458;28;20245;-75
2022/05/20 09:20:50;;;;;;;2.95;2.20;;;;;;;19.24;38.36;63990.47;5083103;28;20299;-74
2022/05/20 09:23:20;;;;;;;2.50;2.30;;;;;;;19.28;38.02;63994.66;5091306;28;20505;-75
2022/05/20 09:25:55;;;;;;;5.28;2.10;;;;;;;19.48;37.66;64012.44;5083323;28;20227;-76
2022/05/20 09:28:30;;;;;;;2.85;2.13;;;;;;;19.65;36.79;64030.16;5084238;28;20198;-75
2022/05/20 09:31:07;;;;;;;3.63;2.33;;;;;;;19.82;36.95;64045.31;5091077;28;20287;-75
2022/05/20 09:33:36;;;;;;;3.85;2.03;;;;;;;19.91;35.96;64054.16;5080164;28;20202;-74
2022/05/20 09:36:06;;;;;;;2.13;1.67;;;;;;;20.01;34.70;64064.59;5095228;28;20464;-75
2022/05/20 09:38:37;;;;;;;3.17;1.75;;;;;;;20.05;34.47;64069.28;5072014;28;20403;-75
2022/05/20 09:41:14;;;;;;;2.33;2.00;;;;;;;19.86;32.19;64054.13;5071744;28;20223;-75
2022/05/20 09:43:43;;;;;;;4.72;1.70;;;;;;;19.59;32.06;64020.81;5072705;28;20215;-76
2022/05/20 09:46:28;;;;;;;2.08;1.35;;;;;;;19.84;30.81;64046.88;5083903;28;20446;-75
2022/05/20 09:49:00;;;;;;;0.82;0.82;;;;;;;20.07;29.97;64070.88;5071172;28;20204;-76
2022/05/20 09:51:35;;;;;;;3.15;1.40;;;;;;;20.26;31.08;64093.81;5081583;28;20196;-76
2022/05/20 09:54:17;;;;;;;2.67;1.90;;;;;;;20.13;33.22;64079.69;5077083;28;20215;-76
2022/05/20 09:56:46;;;;;;;4.43;1.80;;;;;;;20.14;34.63;64078.69;5083310;28;20243;-76
2022/05/20 09:59:28;;;;;;;1.70;1.60;;;;;;;20.28;33.09;64095.38;5083399;28;20228;-76
2022/05/20 10:02:03;;;;;;;1.45;1.40;;;;;;;20.45;32.17;64116.22;5074494;28;20215;-75
2022/05/20 10:04:44;;;;;;;5.00;1.92;;;;;;;20.62;32.06;64130.88;5082548;28;20562;-75
2022/05/20 10:07:17;;;;;;;1.02;1.02;;;;;;;20.75;33.06;64141.84;5063216;28;20193;-77
2022/05/20 10:09:51;;;;;;;1.50;1.15;;;;;;;20.92;32.48;64162.19;5070830;28;20215;-77
2022/05/20 10:12:27;;;;;;;2.00;1.38;;;;;;;21.06;30.84;64176.28;5084782;28;20203;-75
2022/05/20 10:14:59;;;;;;;1.58;1.20;;;;;;;21.19;28.26;64187.78;5077032;28;20235;-75
2022/05/20 10:17:39;;;;;;;2.30;1.30;;;;;;;20.90;28.65;64159.56;5072091;28;20204;-75
2022/05/20 10:20:12;;;;;;;2.97;1.45;;;;;;;21.08;29.76;64178.91;5068740;28;20219;-75
2022/05/20 10:22:51;;;;;;;2.83;1.88;;;;;;;21.15;29.14;64185.69;5082643;28;20198;-74
2022/05/20 10:25:26;;;;;;;0.95;0.93;;;;;;;21.16;30.31;64184.13;5084635;28;20223;-75
2022/05/20 10:28:00;;;;;;;3.72;1.80;;;;;;;21.05;27.14;64172.66;5082707;28;20215;-74
2022/05/20 10:33:23;;;;;;;4.82;1.20;;;;;;;21.04;26.37;64174.72;5081109;28;20207;-74
2022/05/20 10:36:03;;;;;;;2.75;1.10;;;;;;;21.22;26.80;64193.00;5064914;28;20540;-75
2022/05/20 10:38:58;;;;;;;4.35;2.03;;;;;;;21.35;27.65;64207.09;5081273;28;20195;-74
2022/05/20 10:41:41;;;;;;;3.55;1.50;;;;;;;21.49;28.18;64221.19;5075866;28;20272;-74
2022/05/20 10:50:08;;;;;;;1.27;1.20;;;;;;;21.92;29.85;64266.16;5084664;28;20461;-75
2022/05/20 10:53:08;;;;;;;2.33;2.08;;;;;;;22.03;28.43;64279.72;5087789;28;20580;-74
2022/05/20 10:56:00;;;;;;;2.63;2.40;;;;;;;21.89;27.32;64268.19;5070570;28;20236;-74
2022/05/20 10:58:42;;;;;;;2.13;1.23;;;;;;;21.99;26.26;64276.06;5067821;28;20400;-75
2022/05/20 11:01:18;;;;;;;2.30;1.25;;;;;;;22.07;26.34;64279.22;5078172;28;20231;-74
2022/05/20 11:04:17;;;;;;;2.22;1.58;;;;;;;22.23;24.90;64301.13;5083042;28;20210;-75
2022/05/20 11:07:12;;;;;;;6.05;1.83;;;;;;;22.23;26.03;64295.41;5082898;28;20210;-74
2022/05/20 11:09:56;;;;;;;2.03;1.58;;;;;;;22.14;27.36;64294.31;5067243;28;20265;-74
2022/05/20 11:12:34;;;;;;;1.77;1.50;;;;;;;22.15;26.53;64287.06;5077987;28;20226;-74
2022/05/20 11:15:15;;;;;;;3.55;1.50;;;;;;;22.20;27.05;64294.88;5080011;28;20259;-73
2022/05/20 11:18:01;;;;;;;5.90;1.73;;;;;;;22.11;27.02;64280.81;5081694;28;20196;-74
2022/05/20 11:21:02;;;;;;;1.73;1.63;;;;;;;22.27;28.87;64304.78;5085950;28;20216;-74
2022/05/20 11:23:55;;;;;;;3.08;1.30;;;;;;;22.39;26.48;64317.34;5073911;28;20420;-73
2022/05/20 11:26:48;;;;;;;0.88;0.88;;;;;;;22.61;21.77;64340.88;5078778;28;20204;-74
2022/05/20 11:29:35;;;;;;;1.38;0.82;;;;;;;22.81;20.05;64361.78;5074990;28;20537;-74
2022/05/20 11:32:05;;;;;;;1.35;1.13;;;;;;;22.82;20.60;64362.31;5086051;28;20200;-74
2022/05/20 11:34:53;;;;;;;3.75;1.30;;;;;;;22.93;22.78;64374.34;5086345;28;20245;-75
2022/05/20 11:37:35;;;;;;;4.22;1.13;;;;;;;23.09;25.12;64387.44;5079367;28;20219;-75
2022/05/20 11:40:22;;;;;;;3.67;1.75;;;;;;;23.06;23.54;64384.81;5080056;28;20239;-75
2022/05/20 11:43:20;;;;;;;4.80;1.40;;;;;;;22.81;22.17;64361.28;5086057;28;20200;-75
2022/05/20 11:45:59;;;;;;;3.40;1.40;;;;;;;22.79;23.13;64362.31;5083509;28;20547;-75
2022/05/20 11:48:43;;;;;;;1.65;1.55;;;;;;;22.93;22.34;64366.03;5072787;28;20196;-75
2022/05/20 11:51:29;;;;;;;3.95;1.38;;;;;;;22.81;21.99;64361.78;5079076;28;20220;-75
2022/05/20 11:54:01;;;;;;;1.63;1.63;;;;;;;22.86;20.48;64366.50;5079190;28;20196;-76
2022/05/20 11:56:33;;;;;;;7.72;1.80;;;;;;;23.11;21.73;64389.53;5075507;28;20216;-74
2022/05/20 11:59:09;;;;;;;1.33;1.23;;;;;;;23.38;20.52;64420.38;5078774;28;20192;-74
2022/05/20 12:01:39;;;;;;;3.08;1.35;;;;;;;23.61;20.30;64441.84;5085187;28;20234;-74
2022/05/20 12:04:08;;;;;;;1.50;1.20;;;;;;;23.61;20.79;64442.38;5080788;28;20393;-75
2022/05/20 12:06:37;;;;;;;1.73;1.63;;;;;;;23.82;22.78;64461.75;5083752;28;20211;-75
2022/05/20 12:09:05;;;;;;;1.42;1.33;;;;;;;24.17;21.88;64494.75;5084858;28;20212;-74
2022/05/20 12:11:35;;;;;;;1.45;1.40;;;;;;;23.93;22.76;64475.88;5085361;28;20215;-75
2022/05/20 12:14:08;;;;;;;4.18;1.33;;;;;;;24.11;21.50;64499.38;5085293;28;20204;-75
2022/05/20 12:16:56;;;;;;;2.80;1.25;;;;;;;24.38;23.14;64522.47;5080800;28;20220;-74
2022/05/20 12:25:34;;;;;;;2.05;1.35;;;;;;;24.36;20.22;64515.16;5068685;28;20280;-76
2022/05/20 12:28:06;;;;;;;4.10;1.45;;;;;;;24.71;20.17;64559.13;5064194;28;20197;-74
2022/05/20 12:30:40;;;;;;;1.70;1.25;;;;;;;25.26;19.52;64619.34;5064810;28;20224;-75